Time;durP1;ratioP1;P1;durP2;ratioP2;P2;SDS_P1;SDS_P2;PMS_P1;PMS_P2;Temp;Humidity;BMP_temperature;BMP_pressure;BME280_temperature;BME280_humidity;BME280_pressure;Samples;Min_cycle;Max_cycle;Signal;HPM_P1;HPM_P2
2022/12/16 00:02:22;;;;;;;0.33;0.33;;;-1.30;99.90;;;;;;5135610;27;20449;-80
2022/12/16 00:04:50;;;;;;;1.27;0.50;;;-1.20;99.90;;;;;;5134792;27;20512;-81
2022/12/16 00:07:16;;;;;;;1.40;1.40;;;-1.20;99.90;;;;;;5135283;27;20959;-81
2022/12/16 00:09:43;;;;;;;1.37;1.27;;;-1.20;99.90;;;;;;5135238;27;20451;-81
2022/12/16 00:12:10;;;;;;;0.80;0.73;;;-1.30;99.90;;;;;;5135120;27;20447;-81
2022/12/16 00:14:37;;;;;;;0.30;0.30;;;-1.20;99.90;;;;;;5135362;27;20467;-81
2022/12/16 00:17:03;;;;;;;2.70;1.37;;;-1.30;99.90;;;;;;5135428;27;20443;-81
2022/12/16 00:19:31;;;;;;;0.40;0.40;;;-1.30;99.90;;;;;;5134873;27;20435;-81
2022/12/16 00:21:59;;;;;;;0.67;0.50;;;-1.30;99.90;;;;;;5135378;27;20428;-81
2022/12/16 00:24:26;;;;;;;0.90;0.90;;;-1.30;99.90;;;;;;5135200;27;20436;-81
2022/12/16 00:26:53;;;;;;;0.40;0.40;;;-1.30;99.90;;;;;;5135219;27;20454;-81
2022/12/16 00:29:19;;;;;;;0.30;0.30;;;-1.20;99.90;;;;;;5134825;27;20928;-81
2022/12/16 00:31:46;;;;;;;0.40;0.40;;;-1.30;99.90;;;;;;5135158;27;20447;-81
2022/12/16 00:34:13;;;;;;;0.80;0.80;;;-1.30;99.90;;;;;;5134676;27;20876;-81
2022/12/16 00:36:40;;;;;;;0.50;0.50;;;-1.30;99.90;;;;;;5135028;27;20823;-81
2022/12/16 00:39:08;;;;;;;0.40;0.30;;;-1.40;99.90;;;;;;5134683;27;20461;-81
2022/12/16 00:41:35;;;;;;;0.50;0.50;;;-1.40;99.90;;;;;;5134964;27;20439;-81
2022/12/16 00:44:02;;;;;;;0.70;0.70;;;-1.40;99.90;;;;;;5134811;27;20444;-81
2022/12/16 00:46:29;;;;;;;0.37;0.37;;;-1.40;99.90;;;;;;5134571;27;20946;-81
2022/12/16 00:48:55;;;;;;;1.63;1.63;;;-1.40;99.90;;;;;;5134801;27;20451;-81
2022/12/16 00:51:22;;;;;;;0.40;0.40;;;-1.40;99.90;;;;;;5134663;27;20450;-81
2022/12/16 00:53:49;;;;;;;0.40;0.40;;;-1.40;99.90;;;;;;5134577;27;20482;-81
2022/12/16 00:56:18;;;;;;;0.40;0.40;;;-1.40;99.90;;;;;;5134395;27;20425;-81
2022/12/16 00:58:44;;;;;;;1.57;1.50;;;-1.50;99.90;;;;;;5134671;27;20438;-81
2022/12/16 01:01:12;;;;;;;0.30;0.30;;;-1.50;99.90;;;;;;5134311;27;20942;-81
2022/12/16 01:03:39;;;;;;;1.07;0.80;;;-1.50;99.90;;;;;;5134593;27;20459;-81
2022/12/16 01:06:09;;;;;;;0.43;0.43;;;-1.50;99.90;;;;;;5134279;27;20946;-81
2022/12/16 01:08:35;;;;;;;0.50;0.50;;;-1.60;99.90;;;;;;5134523;27;20440;-81
2022/12/16 01:11:02;;;;;;;0.80;0.80;;;-1.60;99.90;;;;;;5134193;27;20443;-81
2022/12/16 01:13:30;;;;;;;0.40;0.40;;;-1.60;99.90;;;;;;5134350;27;20483;-81
2022/12/16 01:16:00;;;;;;;1.80;1.30;;;-1.60;99.90;;;;;;5133996;27;20455;-81
2022/12/16 01:18:27;;;;;;;0.30;0.30;;;-1.50;99.90;;;;;;5134447;27;20454;-81
2022/12/16 01:20:53;;;;;;;0.67;0.67;;;-1.50;99.90;;;;;;5133958;27;20474;-81
2022/12/16 01:23:20;;;;;;;0.40;0.40;;;-1.50;99.90;;;;;;5134325;27;20434;-81
2022/12/16 01:25:52;;;;;;;0.30;0.30;;;-1.50;99.90;;;;;;5134351;27;20496;-81
2022/12/16 01:28:18;;;;;;;0.40;0.40;;;-1.60;99.90;;;;;;5134336;27;20423;-82
2022/12/16 01:30:46;;;;;;;0.30;0.30;;;-1.50;99.90;;;;;;5134336;27;20442;-82
2022/12/16 01:33:13;;;;;;;0.40;0.40;;;-1.50;99.90;;;;;;5133805;27;20854;-82
2022/12/16 01:35:40;;;;;;;0.73;0.73;;;-1.60;99.90;;;;;;5133962;27;20451;-82
2022/12/16 01:38:06;;;;;;;0.30;0.30;;;-1.50;99.90;;;;;;5134226;27;20450;-81
2022/12/16 01:40:33;;;;;;;3.90;0.90;;;-1.60;99.90;;;;;;5134757;27;20413;-81
2022/12/16 01:43:00;;;;;;;0.30;0.30;;;-1.60;99.90;;;;;;5133840;27;20455;-81
2022/12/16 01:45:32;;;;;;;0.40;0.40;;;-1.60;99.90;;;;;;5134176;27;20449;-81
2022/12/16 01:48:06;;;;;;;0.93;0.93;;;-1.60;99.90;;;;;;5133890;27;20859;-81
2022/12/16 01:50:33;;;;;;;2.33;1.83;;;-1.60;99.90;;;;;;5134202;27;20411;-81
2022/12/16 01:53:05;;;;;;;0.63;0.63;;;-1.50;99.90;;;;;;5133943;27;20540;-82
2022/12/16 01:55:35;;;;;;;0.57;0.57;;;-1.50;99.90;;;;;;5134140;27;20449;-82
2022/12/16 01:58:07;;;;;;;0.40;0.40;;;-1.50;99.90;;;;;;5134038;27;20447;-82
2022/12/16 02:00:34;;;;;;;0.87;0.70;;;-1.50;99.90;;;;;;5134106;27;20401;-81
2022/12/16 02:03:03;;;;;;;0.53;0.53;;;-1.50;99.90;;;;;;5133674;27;20429;-81
2022/12/16 02:05:31;;;;;;;0.33;0.33;;;-1.50;99.90;;;;;;5133984;27;20443;-81
2022/12/16 02:08:01;;;;;;;2.20;0.73;;;-1.60;99.90;;;;;;5133990;27;20449;-81
2022/12/16 02:10:39;;;;;;;1.23;1.23;;;-1.50;99.90;;;;;;5133596;27;20839;-81
2022/12/16 02:13:18;;;;;;;0.40;0.40;;;-1.60;99.90;;;;;;5133493;27;20568;-81
2022/12/16 02:15:52;;;;;;;0.77;0.40;;;-1.50;99.90;;;;;;5133646;27;20452;-81
2022/12/16 02:18:31;;;;;;;0.30;0.30;;;-1.50;99.90;;;;;;5133909;27;20423;-81
2022/12/16 02:21:32;;;;;;;1.20;1.10;;;-1.50;99.90;;;;;;5133419;27;20453;-81
2022/12/16 02:24:29;;;;;;;0.30;0.30;;;-1.50;99.90;;;;;;5133809;27;20458;-82
2022/12/16 02:27:27;;;;;;;3.13;0.93;;;-1.50;99.90;;;;;;5133818;27;20519;-82
2022/12/16 02:30:20;;;;;;;0.63;0.63;;;-1.50;99.90;;;;;;5137395;27;20913;-82
2022/12/16 02:32:58;;;;;;;0.40;0.30;;;-1.50;99.90;;;;;;5137072;27;20977;-82
2022/12/16 02:35:33;;;;;;;0.30;0.30;;;-1.50;99.90;;;;;;5137458;27;20397;-82
2022/12/16 02:38:10;;;;;;;0.40;0.40;;;-1.50;99.90;;;;;;5137087;27;20895;-81
2022/12/16 02:40:42;;;;;;;0.30;0.30;;;-1.50;99.90;;;;;;5137398;27;20427;-81
2022/12/16 02:43:15;;;;;;;0.30;0.30;;;-1.50;99.90;;;;;;5137270;27;20482;-80
2022/12/16 02:45:44;;;;;;;0.77;0.77;;;-1.50;99.90;;;;;;5137244;27;20446;-81
2022/12/16 02:48:11;;;;;;;0.50;0.50;;;-1.50;99.90;;;;;;5137150;27;20446;-81
2022/12/16 02:50:45;;;;;;;0.40;0.40;;;-1.40;99.90;;;;;;5136816;27;20857;-81
2022/12/16 02:53:12;;;;;;;0.40;0.40;;;-1.40;99.90;;;;;;5136950;27;20448;-81
2022/12/16 02:55:48;;;;;;;0.80;0.80;;;-1.40;99.90;;;;;;5137072;27;20446;-81
2022/12/16 02:58:19;;;;;;;3.70;1.00;;;-1.50;99.90;;;;;;5137010;27;20440;-81
2022/12/16 03:00:54;;;;;;;0.30;0.30;;;-1.50;99.90;;;;;;5136933;27;20438;-81
2022/12/16 03:03:26;;;;;;;2.53;1.00;;;-1.50;99.90;;;;;;5136824;27;20461;-81
2022/12/16 03:05:56;;;;;;;0.40;0.40;;;-1.40;99.90;;;;;;5136896;27;20459;-81
2022/12/16 03:08:28;;;;;;;0.50;0.50;;;-1.50;99.90;;;;;;5136768;27;20458;-81
2022/12/16 03:10:59;;;;;;;0.30;0.30;;;-1.50;99.90;;;;;;5136472;27;20431;-81
2022/12/16 03:13:29;;;;;;;0.30;0.30;;;-1.60;99.90;;;;;;5136549;27;20482;-81
2022/12/16 03:16:00;;;;;;;1.00;1.00;;;-1.60;99.90;;;;;;5137101;27;20458;-82
2022/12/16 03:18:27;;;;;;;0.30;0.30;;;-1.50;99.90;;;;;;5136281;27;20950;-82
2022/12/16 03:20:56;;;;;;;0.50;0.50;;;-1.60;99.90;;;;;;5136107;27;20452;-82
2022/12/16 03:23:27;;;;;;;0.30;0.30;;;-1.60;99.90;;;;;;5136471;27;20466;-82
2022/12/16 03:25:59;;;;;;;0.30;0.30;;;-1.60;99.90;;;;;;5136221;27;20904;-82
2022/12/16 03:28:36;;;;;;;0.33;0.33;;;-1.50;99.90;;;;;;5136128;27;20932;-82
2022/12/16 03:31:13;;;;;;;0.30;0.30;;;-1.50;99.90;;;;;;5136052;27;20925;-81
2022/12/16 03:33:45;;;;;;;0.60;0.60;;;-1.50;99.90;;;;;;5136162;27;20486;-81
2022/12/16 03:36:17;;;;;;;0.30;0.30;;;-1.50;99.90;;;;;;5135945;27;20949;-81
2022/12/16 03:38:45;;;;;;;0.30;0.30;;;-1.50;99.90;;;;;;5135925;27;20427;-81
2022/12/16 03:41:13;;;;;;;0.40;0.40;;;-1.50;99.90;;;;;;5136119;27;20447;-81
2022/12/16 03:43:40;;;;;;;0.90;0.90;;;-1.50;99.90;;;;;;5136004;27;20459;-81
2022/12/16 03:46:10;;;;;;;0.50;0.50;;;-1.50;99.90;;;;;;5135676;27;20954;-81
2022/12/16 03:48:45;;;;;;;0.70;0.70;;;-1.50;99.90;;;;;;5136802;27;20439;-81
2022/12/16 03:51:11;;;;;;;2.40;1.87;;;-1.50;99.90;;;;;;5135977;27;20430;-81
2022/12/16 03:53:39;;;;;;;0.30;0.30;;;-1.50;99.90;;;;;;5135745;27;20493;-82
2022/12/16 03:56:06;;;;;;;0.30;0.30;;;-1.50;99.90;;;;;;5136745;27;20827;-82
2022/12/16 03:58:34;;;;;;;3.60;0.77;;;-1.50;99.90;;;;;;5135789;27;20418;-82
2022/12/16 04:01:01;;;;;;;0.30;0.30;;;-1.40;99.90;;;;;;5135775;27;20451;-82
2022/12/16 04:03:29;;;;;;;0.30;0.30;;;-1.50;99.90;;;;;;5135613;27;20458;-81
2022/12/16 04:05:55;;;;;;;0.80;0.80;;;-1.50;99.90;;;;;;5135630;27;20447;-81
2022/12/16 04:08:22;;;;;;;1.03;1.03;;;-1.50;99.90;;;;;;5135593;27;20422;-81
2022/12/16 04:24:32;;;;;;;0.50;0.47;;;-1.40;99.90;;;;;;5135308;27;20439;-82
2022/12/16 04:34:24;;;;;;;0.30;0.30;;;-1.50;99.90;;;;;;5135151;27;20413;-82
